TFM - Tactical Decision Aid
ID: Runway Winds: CIG/VIS Threshold:

KCLT - Charlotte/Douglas In, NC, US

Updated at: 1326 UTC 24 Jan 2021
Latest TAF at: 1129 UTC 24 Jan 2021

TAF Board

Time1252Z 24/14Z 24/15Z 24/16Z 24/17Z 24/18Z 24/19Z 24/20Z 24/21Z 24/22Z 24/23Z 25/00Z 25/01Z 25/02Z>>
Type OBS PRVL PRVL PRVL PRVL PRVL PRVL PRVL PRVL PRVL PRVL PRVL PRVL PRVL
VIS 10 >6 >6 >6 >6 >6 >6 >6 >6 >6 >6 >6 >6 >6
CIG -- 120 120 120 120 120 120 120 90 90 90 90 90 90
Cover SCT BKN BKN BKN BKN BKN BKN BKN OVC OVC OVC OVC OVC OVC
FltCat VFR VFR VFR VFR VFR VFR VFR VFR VFR VFR VFR VFR VFR VFR
WX -- -- -- -- -- -- -- -- -- -- -- -- -- --
WDir VRB 50 50 50 50 50 50 50 180 180 180 180 180 180
WSpd 3 6 6 6 6 6 6 6 4 4 4 4 4 4
WGst -- -- -- -- -- -- -- -- -- -- -- -- -- --

TDA Impact Legend

  None Marginal Slight Moderate High
Visibility (sm) >5 2.9≤X≤5 0.9≤X<2.9 <0.9
Ceiling (100 ft) >30 9.9≤X≤30 4.9≤X<9.9 <4.9
Wind Speed (kt) <15 15≤X<25 25≤X<30 ≥30
Wind Gust (kt) <15 15≤X<25 25≤X<35 ≥35
Weather No Wx Reported VCTS -TS,-FZRA TS,FZRA +TS,+FZRA
TAF
KCLT 241129Z 2412/2518 05006KT P6SM BKN120
  FM242100 18004KT P6SM OVC090
  FM250600 19003KT P6SM BKN028
  FM251100 VRB03KT P6SM VCSH OVC018
  FM251300 17004KT 4SM -SHRA BR OVC008


METAR
KCLT 241252Z VRB03KT 10SM SCT110 SCT250 M01/M09 A3033 RMK AO2 SLP273 T10111089
KCLT 241152Z 05003KT 10SM SCT120 00/M12 A3032 RMK AO2 SLP271 T00001117 10033 20000 51009
KCLT 241052Z 03006KT 10SM BKN120 01/M12 A3032 RMK AO2 SLP270 T00111122

Radar Display
Forecast Discussion